Time;durP1;ratioP1;P1;durP2;ratioP2;P2;SDS_P1;SDS_P2;PMS_P1;PMS_P2;Temp;Humidity;BMP_temperature;BMP_pressure;BME280_temperature;BME280_humidity;BME280_pressure;Samples;Min_cycle;Max_cycle;Signal;HPM_P1;HPM_P2
2022/06/24 00:00:14;;;;;;;1.75;1.40;;;20.40;55.70;20.60;100228.00;;;;4991429;28;87401;-63
2022/06/24 00:02:41;;;;;;;5.50;1.45;;;20.40;55.80;20.50;100225.00;;;;4991411;28;88832;-63
2022/06/24 00:05:10;;;;;;;2.58;1.83;;;20.40;56.00;20.50;100225.00;;;;4991102;28;87593;-64
2022/06/24 00:07:51;;;;;;;1.08;0.98;;;20.30;56.00;20.40;100225.00;;;;4991828;28;87832;-64
2022/06/24 00:10:29;;;;;;;1.90;1.27;;;20.30;56.60;20.40;100217.00;;;;4999739;28;91877;-63
2022/06/24 00:12:54;;;;;;;1.92;1.23;;;20.30;56.60;20.30;100224.00;;;;4973846;28;89321;-63
2022/06/24 00:15:30;;;;;;;1.25;1.02;;;20.20;56.60;20.30;100226.00;;;;4971414;28;88117;-63
2022/06/24 00:17:56;;;;;;;1.20;1.10;;;20.20;56.80;20.30;100222.00;;;;4971415;28;88283;-63
2022/06/24 00:20:22;;;;;;;2.30;1.80;;;20.10;57.00;20.20;100227.00;;;;4971494;28;95898;-63
2022/06/24 00:22:51;;;;;;;1.58;1.08;;;20.10;57.30;20.20;100222.00;;;;4991074;28;88892;-63
2022/06/24 00:25:25;;;;;;;1.00;1.00;;;20.00;57.30;20.10;100224.00;;;;4986028;28;87832;-63
2022/06/24 00:28:09;;;;;;;1.52;1.42;;;20.00;57.60;20.00;100224.00;;;;4990183;28;87493;-64
2022/06/24 00:30:50;;;;;;;1.50;1.40;;;20.00;57.90;20.00;100225.00;;;;4991557;28;87116;-64
2022/06/24 00:33:20;;;;;;;1.40;1.30;;;19.90;58.30;20.00;100225.00;;;;4971970;28;88440;-63
2022/06/24 00:35:54;;;;;;;2.08;1.63;;;19.80;58.30;19.90;100220.00;;;;4972392;28;88699;-63
2022/06/24 00:38:35;;;;;;;6.43;1.17;;;19.80;58.60;19.90;100220.00;;;;4971421;28;87039;-63
2022/06/24 00:41:10;;;;;;;1.70;1.30;;;19.70;58.70;19.80;100219.00;;;;4972194;28;87793;-64
2022/06/24 00:43:39;;;;;;;2.30;1.52;;;19.70;59.00;19.80;100219.00;;;;4990997;28;89450;-63
2022/06/24 00:46:24;;;;;;;1.23;1.13;;;19.60;59.00;19.70;100222.00;;;;4991108;28;88923;-63
2022/06/24 00:48:58;;;;;;;1.35;1.25;;;19.60;59.20;19.70;100217.00;;;;4991409;28;91906;-63
2022/06/24 00:51:38;;;;;;;1.88;1.15;;;19.60;59.40;19.60;100226.00;;;;4976613;28;93820;-63
2022/06/24 00:54:11;;;;;;;1.63;1.52;;;19.50;59.60;19.60;100219.00;;;;4991491;28;87669;-64
2022/06/24 00:56:37;;;;;;;2.38;1.88;;;19.50;59.80;19.60;100214.00;;;;4990511;28;109814;-63
2022/06/24 00:59:06;;;;;;;2.10;1.30;;;19.50;60.00;19.50;100214.00;;;;4991283;28;87866;-63
2022/06/24 01:01:36;;;;;;;1.55;1.02;;;19.40;60.20;19.50;100220.00;;;;4991694;28;86584;-64
2022/06/24 01:04:04;;;;;;;5.97;1.20;;;19.30;60.60;19.40;100224.00;;;;4991407;28;88473;-64
2022/06/24 01:06:31;;;;;;;1.55;1.45;;;19.30;61.70;19.30;100219.00;;;;4990940;28;92453;-64
2022/06/24 01:08:57;;;;;;;2.03;1.58;;;19.20;61.30;19.20;100225.00;;;;4991339;28;88223;-63
2022/06/24 01:11:34;;;;;;;2.67;1.40;;;19.10;61.80;19.10;100218.00;;;;4988420;28;107788;-63
2022/06/24 01:14:01;;;;;;;1.25;1.05;;;19.10;62.60;19.10;100206.00;;;;4971188;28;88559;-63
2022/06/24 01:16:27;;;;;;;1.60;1.50;;;19.00;63.00;19.00;100209.00;;;;4970733;28;110545;-63
2022/06/24 01:19:03;;;;;;;1.90;1.45;;;18.90;63.70;18.90;100214.00;;;;4977808;28;87459;-63
2022/06/24 01:21:35;;;;;;;9.82;1.40;;;18.80;64.40;18.80;100207.00;;;;4990363;28;87516;-64
2022/06/24 01:24:05;;;;;;;1.27;1.17;;;18.70;65.00;18.70;100216.00;;;;4991423;28;88891;-64
2022/06/24 01:26:31;;;;;;;1.73;1.20;;;18.60;65.60;18.70;100218.00;;;;4973157;28;87126;-63
2022/06/24 01:28:56;;;;;;;1.38;1.27;;;18.60;66.40;18.60;100207.00;;;;4989182;28;87831;-63
2022/06/24 01:31:22;;;;;;;1.20;1.00;;;18.50;67.10;18.60;100217.00;;;;4989066;28;108297;-63
2022/06/24 01:33:48;;;;;;;1.38;1.27;;;18.50;67.90;18.60;100215.00;;;;4971519;28;118497;-63
2022/06/24 01:36:13;;;;;;;1.60;1.27;;;18.40;68.50;18.50;100218.00;;;;4973560;28;118439;-64
2022/06/24 01:38:39;;;;;;;1.98;1.42;;;18.40;69.10;18.50;100212.00;;;;4975864;28;111196;-63
2022/06/24 01:41:05;;;;;;;3.90;1.85;;;18.40;69.90;18.50;100199.00;;;;4975200;28;87361;-63
2022/06/24 01:43:31;;;;;;;1.92;1.83;;;18.40;70.90;18.50;100208.00;;;;4991690;28;118236;-63
2022/06/24 01:45:56;;;;;;;2.17;1.50;;;18.40;71.40;18.50;100201.00;;;;4993451;28;116820;-64
2022/06/24 01:48:22;;;;;;;3.30;1.98;;;18.30;71.90;18.40;100200.00;;;;4984749;28;97062;-64
2022/06/24 01:50:48;;;;;;;2.20;1.60;;;18.30;72.40;18.40;100197.00;;;;4973619;28;109327;-64
2022/06/24 01:53:13;;;;;;;2.35;1.70;;;18.30;72.90;18.40;100197.00;;;;4989095;28;117527;-64
2022/06/24 01:55:39;;;;;;;1.75;1.30;;;18.20;73.40;18.40;100194.00;;;;4975559;28;98183;-64
2022/06/24 01:58:05;;;;;;;1.50;1.40;;;18.20;73.90;18.40;100196.00;;;;4993107;28;110303;-63
2022/06/24 02:00:30;;;;;;;1.98;1.55;;;18.20;74.40;18.30;100193.00;;;;4993869;28;96841;-64
2022/06/24 02:02:56;;;;;;;2.60;1.73;;;18.20;74.90;18.30;100193.00;;;;4992498;28;117990;-63
2022/06/24 02:05:25;;;;;;;1.27;0.95;;;18.20;75.30;18.30;100198.00;;;;4992757;28;117328;-63
2022/06/24 02:07:51;;;;;;;1.58;1.30;;;18.10;75.70;18.30;100201.00;;;;4993230;28;87672;-63
2022/06/24 02:13:30;;;;;;;3.15;1.70;;;18.10;76.70;18.20;100201.00;;;;4975416;28;87565;-63
2022/06/24 02:16:03;;;;;;;1.98;1.58;;;18.10;76.90;18.20;100204.00;;;;4973137;28;88294;-64
2022/06/24 02:18:31;;;;;;;1.60;1.50;;;18.10;77.30;18.20;100196.00;;;;4977507;28;86847;-64
2022/06/24 02:20:58;;;;;;;1.65;1.42;;;18.00;77.90;18.10;100194.00;;;;4992970;28;101411;-64
2022/06/24 02:23:26;;;;;;;1.67;1.45;;;18.00;78.30;18.00;100202.00;;;;4975285;28;89464;-64
2022/06/24 02:25:54;;;;;;;1.48;1.38;;;17.90;78.90;18.00;100206.00;;;;4991874;28;90018;-63
2022/06/24 02:28:20;;;;;;;1.83;1.45;;;17.90;79.30;18.00;100194.00;;;;4993334;28;87438;-64
2022/06/24 02:30:47;;;;;;;1.33;1.23;;;17.80;79.70;17.90;100191.00;;;;4992637;28;87449;-63
2022/06/24 02:33:13;;;;;;;2.08;1.52;;;17.80;80.00;17.90;100193.00;;;;4978274;28;88350;-64
2022/06/24 02:35:41;;;;;;;1.85;1.50;;;17.80;80.20;17.90;100188.00;;;;4972105;28;106217;-64
2022/06/24 02:38:07;;;;;;;1.35;1.10;;;17.70;81.30;17.80;100191.00;;;;4973166;28;90767;-64
2022/06/24 02:40:45;;;;;;;2.38;1.77;;;17.70;80.70;17.80;100188.00;;;;4972566;28;99825;-64
2022/06/24 02:43:24;;;;;;;1.40;1.30;;;17.70;80.90;17.70;100193.00;;;;4980228;28;88851;-64
2022/06/24 02:46:11;;;;;;;5.60;1.70;;;17.60;81.00;17.70;100188.00;;;;4971737;28;88158;-63
2022/06/24 02:48:40;;;;;;;3.55;1.60;;;17.60;81.20;17.60;100193.00;;;;4971853;28;88282;-64
2022/06/24 02:51:09;;;;;;;1.75;1.60;;;17.60;81.70;17.60;100190.00;;;;4972048;28;86892;-64
2022/06/24 02:53:36;;;;;;;1.55;1.45;;;17.50;81.90;17.50;100187.00;;;;4989298;28;88536;-64
2022/06/24 02:56:13;;;;;;;1.73;1.60;;;17.40;82.30;17.40;100195.00;;;;4991768;28;87478;-64
2022/06/24 02:58:41;;;;;;;3.80;2.22;;;17.40;82.80;17.40;100191.00;;;;4991872;28;87713;-64
2022/06/24 03:01:07;;;;;;;3.47;2.05;;;17.30;83.10;17.40;100187.00;;;;4992152;28;87465;-64
2022/06/24 03:03:33;;;;;;;1.70;1.60;;;17.30;84.30;17.30;100188.00;;;;4991806;28;87455;-64
2022/06/24 03:05:59;;;;;;;1.75;1.42;;;17.20;84.10;17.30;100195.00;;;;4992375;28;87868;-64
2022/06/24 03:08:47;;;;;;;2.13;1.92;;;17.20;84.50;17.20;100190.00;;;;4993196;28;87377;-64
2022/06/24 03:11:14;;;;;;;2.80;1.98;;;17.10;85.00;17.20;100201.00;;;;4992984;28;87118;-64
2022/06/24 03:13:39;;;;;;;2.22;1.73;;;17.10;86.00;17.10;100204.00;;;;4982686;28;88392;-64
2022/06/24 03:16:05;;;;;;;1.67;1.50;;;17.10;85.30;17.10;100203.00;;;;4991125;28;116354;-63
2022/06/24 03:18:31;;;;;;;1.50;1.40;;;17.00;85.50;17.10;100201.00;;;;4992144;28;87292;-64
2022/06/24 03:20:57;;;;;;;1.77;1.55;;;17.00;85.70;17.10;100193.00;;;;4982518;28;106290;-64
2022/06/24 03:23:22;;;;;;;1.70;1.60;;;17.00;86.00;17.20;100194.00;;;;4990206;28;116823;-64
2022/06/24 03:25:48;;;;;;;3.00;1.88;;;17.10;86.20;17.20;100202.00;;;;4953415;28;1117978;-67
2022/06/24 03:28:14;;;;;;;3.25;1.60;;;17.10;86.60;17.20;100204.00;;;;4993300;28;88039;-64
2022/06/24 03:30:40;;;;;;;1.83;1.50;;;17.10;86.80;17.20;100203.00;;;;4992110;28;108105;-64
2022/06/24 03:33:06;;;;;;;8.63;1.65;;;17.10;87.10;17.20;100202.00;;;;4981432;28;116805;-64
2022/06/24 03:35:40;;;;;;;1.33;1.23;;;17.10;87.50;17.30;100202.00;;;;4964965;28;103296;-64
2022/06/24 03:38:06;;;;;;;1.52;1.42;;;17.20;87.90;17.30;100204.00;;;;4972659;28;110162;-64
2022/06/24 03:40:32;;;;;;;2.10;1.42;;;17.20;88.70;17.40;100200.00;;;;4988969;28;106332;-64
2022/06/24 03:42:57;;;;;;;1.35;1.25;;;17.20;89.70;17.40;100189.00;;;;4982395;28;102475;-64
2022/06/24 03:45:23;;;;;;;1.70;1.48;;;17.30;90.10;17.50;100193.00;;;;4972173;28;116961;-65
2022/06/24 03:47:49;;;;;;;10.52;1.85;;;17.30;90.40;17.50;100202.00;;;;4991464;28;110695;-65
2022/06/24 03:50:15;;;;;;;2.05;1.52;;;17.40;90.50;17.60;100209.00;;;;4989408;28;87670;-64
2022/06/24 03:52:41;;;;;;;2.17;1.80;;;17.40;91.10;17.70;100216.00;;;;4983475;28;88868;-65
2022/06/24 03:55:07;;;;;;;1.98;1.55;;;17.50;91.20;17.80;100219.00;;;;4971772;28;117950;-65
2022/06/24 03:57:32;;;;;;;3.15;1.98;;;17.60;91.60;17.80;100213.00;;;;4959202;28;87615;-65
2022/06/24 03:59:58;;;;;;;3.53;1.70;;;17.60;91.80;17.90;100218.00;;;;4992456;28;87579;-64
2022/06/24 04:02:24;;;;;;;2.00;1.67;;;17.70;91.80;18.00;100214.00;;;;4986464;28;118908;-65
2022/06/24 04:04:50;;;;;;;1.42;1.08;;;17.80;91.60;18.10;100204.00;;;;4971607;28;90201;-65
2022/06/24 04:07:15;;;;;;;2.75;1.77;;;17.90;91.50;18.20;100211.00;;;;4986571;28;87455;-65
2022/06/24 04:09:41;;;;;;;1.27;1.00;;;17.90;91.20;18.20;100208.00;;;;4988580;28;109232;-65
2022/06/24 04:12:07;;;;;;;2.05;1.63;;;18.00;91.10;18.30;100205.00;;;;4989778;28;116841;-65
2022/06/24 04:17:17;;;;;;;1.20;1.10;;;18.20;90.80;18.50;100198.00;;;;4955082;28;87946;-65
2022/06/24 04:19:43;;;;;;;2.88;1.63;;;18.30;90.50;18.60;100197.00;;;;4984046;28;106183;-65
2022/06/24 04:22:08;;;;;;;5.18;1.70;;;18.40;90.30;18.70;100194.00;;;;4989050;28;104925;-65
2022/06/24 04:24:34;;;;;;;1.23;1.13;;;18.50;90.30;18.80;100207.00;;;;4990421;28;116175;-66
2022/06/24 04:27:00;;;;;;;1.83;1.73;;;18.60;90.10;18.90;100193.00;;;;4981767;28;110607;-65
2022/06/24 04:29:25;;;;;;;1.30;1.20;;;18.70;90.00;19.00;100203.00;;;;4991737;28;87343;-64
2022/06/24 04:31:51;;;;;;;1.23;1.10;;;18.80;89.80;19.10;100198.00;;;;4991816;28;88822;-64
2022/06/24 04:34:17;;;;;;;2.10;1.45;;;18.90;89.30;19.20;100193.00;;;;4972068;28;88171;-65
2022/06/24 04:36:42;;;;;;;1.33;1.17;;;19.00;88.90;19.40;100190.00;;;;4959071;28;87467;-65
2022/06/24 04:39:08;;;;;;;1.65;1.00;;;19.10;88.30;19.50;100181.00;;;;4983653;28;107720;-65
2022/06/24 04:41:34;;;;;;;1.50;1.17;;;19.20;87.80;19.60;100181.00;;;;4990359;28;118215;-65
2022/06/24 04:43:59;;;;;;;1.80;1.38;;;19.40;87.20;19.70;100178.00;;;;4971793;28;87155;-66
2022/06/24 04:46:25;;;;;;;2.30;1.70;;;19.50;86.70;19.80;100183.00;;;;4970930;28;111550;-65
2022/06/24 04:48:51;;;;;;;5.38;2.25;;;19.60;86.10;20.00;100179.00;;;;4976095;28;89333;-66
2022/06/24 04:51:17;;;;;;;2.72;1.65;;;19.70;85.50;20.10;100183.00;;;;4981622;28;118438;-66
2022/06/24 04:53:42;;;;;;;5.47;1.52;;;19.90;85.10;20.30;100187.00;;;;4985390;28;88045;-66
2022/06/24 04:56:08;;;;;;;1.83;1.70;;;20.00;84.40;20.40;100184.00;;;;4991317;28;97217;-65
2022/06/24 04:58:34;;;;;;;1.77;1.27;;;20.20;83.70;20.60;100170.00;;;;4989983;28;108578;-66
2022/06/24 05:00:59;;;;;;;1.77;1.63;;;20.30;83.00;20.70;100175.00;;;;4991207;28;88610;-66
2022/06/24 05:03:25;;;;;;;3.58;1.45;;;20.50;82.50;20.90;100178.00;;;;4989393;28;117366;-66
2022/06/24 05:05:51;;;;;;;1.77;1.40;;;20.60;81.60;21.00;100177.00;;;;4988533;28;110912;-66
2022/06/24 05:08:16;;;;;;;1.98;1.77;;;20.80;80.90;21.20;100175.00;;;;4990622;28;106739;-65
2022/06/24 05:10:42;;;;;;;2.38;1.42;;;20.90;80.20;21.40;100171.00;;;;4988641;28;116670;-65
2022/06/24 05:13:09;;;;;;;2.28;1.77;;;21.00;79.50;21.50;100166.00;;;;4981994;28;117360;-66
2022/06/24 05:15:35;;;;;;;4.18;1.77;;;21.20;78.30;21.60;100162.00;;;;4971244;28;101518;-66
2022/06/24 05:18:02;;;;;;;4.05;1.42;;;21.40;77.40;21.80;100168.00;;;;4971487;28;87162;-64
2022/06/24 05:20:28;;;;;;;1.60;1.50;;;21.50;76.60;21.90;100168.00;;;;4975715;28;88039;-66
2022/06/24 05:22:54;;;;;;;2.08;1.85;;;21.60;76.00;22.10;100167.00;;;;4976641;28;88368;-65
2022/06/24 05:25:20;;;;;;;1.30;1.20;;;21.80;75.10;22.30;100165.00;;;;4985258;28;110060;-66
2022/06/24 05:27:45;;;;;;;2.08;1.35;;;21.90;73.90;22.40;100167.00;;;;4970606;28;100112;-66
2022/06/24 05:30:11;;;;;;;1.77;1.67;;;22.10;73.60;22.60;100166.00;;;;4971432;28;109220;-67
2022/06/24 05:32:37;;;;;;;3.55;1.58;;;22.30;72.70;22.80;100160.00;;;;4973745;28;88277;-64
2022/06/24 05:35:06;;;;;;;2.75;1.42;;;22.50;71.60;22.90;100158.00;;;;4991638;28;87434;-64
2022/06/24 05:37:33;;;;;;;1.88;1.67;;;22.60;70.00;23.10;100149.00;;;;4977281;28;87420;-62
2022/06/24 05:39:59;;;;;;;2.05;1.50;;;22.70;69.50;23.30;100147.00;;;;4969962;28;89670;-64
2022/06/24 05:42:24;;;;;;;3.05;1.52;;;22.90;68.90;23.40;100144.00;;;;4970731;28;88983;-64
2022/06/24 05:44:50;;;;;;;1.58;1.48;;;23.10;68.50;23.70;100142.00;;;;4990154;28;109139;-65
2022/06/24 05:47:16;;;;;;;1.75;1.52;;;23.30;67.90;23.90;100140.00;;;;4989424;28;87292;-65
2022/06/24 05:49:41;;;;;;;1.88;1.77;;;23.60;66.80;24.10;100133.00;;;;4988018;28;118237;-66
2022/06/24 05:52:07;;;;;;;1.88;1.77;;;23.70;65.30;24.30;100134.00;;;;4984323;28;117883;-66
2022/06/24 05:57:17;;;;;;;2.25;2.10;;;24.10;63.10;24.70;100132.00;;;;4971138;28;86676;-66
2022/06/24 05:59:43;;;;;;;3.08;1.60;;;24.40;62.00;24.90;100131.00;;;;4990156;28;116630;-65
2022/06/24 06:02:09;;;;;;;2.13;1.60;;;24.50;60.30;25.00;100134.00;;;;4979795;28;116576;-64
2022/06/24 06:04:34;;;;;;;1.10;0.98;;;24.60;59.30;25.10;100120.00;;;;4990704;28;87828;-66
2022/06/24 06:07:00;;;;;;;3.53;1.80;;;24.70;58.90;25.20;100133.00;;;;4990720;28;86927;-64
2022/06/24 06:09:26;;;;;;;2.55;1.77;;;24.90;57.80;25.30;100126.00;;;;4989690;28;108930;-64
2022/06/24 06:11:52;;;;;;;2.83;1.42;;;25.00;57.40;25.40;100123.00;;;;4988971;28;117750;-65
2022/06/24 06:14:17;;;;;;;1.70;1.42;;;25.10;57.40;25.60;100114.00;;;;4975795;28;87417;-65
2022/06/24 06:16:43;;;;;;;2.25;1.65;;;25.30;56.00;25.80;100118.00;;;;4962183;28;107945;-66
2022/06/24 06:19:08;;;;;;;2.65;2.17;;;25.40;54.00;25.90;100113.00;;;;4977516;28;115460;-64
2022/06/24 06:21:35;;;;;;;1.25;1.10;;;25.60;53.50;26.00;100107.00;;;;4973606;28;116169;-65
2022/06/24 06:24:01;;;;;;;8.48;1.75;;;25.70;52.40;26.20;100102.00;;;;4980376;28;87825;-66
2022/06/24 06:26:28;;;;;;;1.85;1.65;;;25.80;52.00;26.20;100107.00;;;;4972628;28;108471;-65
2022/06/24 06:28:54;;;;;;;1.42;1.30;;;25.90;51.90;26.40;100102.00;;;;4973861;28;88324;-64
2022/06/24 06:31:20;;;;;;;2.80;1.60;;;26.00;50.90;26.50;100090.00;;;;4973603;28;88011;-65
2022/06/24 06:33:45;;;;;;;4.75;1.05;;;26.10;51.00;26.60;100103.00;;;;4974949;28;87356;-65
2022/06/24 06:36:12;;;;;;;2.03;1.55;;;26.20;51.30;26.80;100105.00;;;;4992299;28;109238;-65
2022/06/24 06:38:39;;;;;;;2.83;1.75;;;26.40;51.20;27.00;100102.00;;;;4975988;28;113737;-66
2022/06/24 06:41:05;;;;;;;3.75;1.30;;;26.70;50.60;27.20;100100.00;;;;4974496;28;87408;-65
2022/06/24 06:43:30;;;;;;;1.92;1.67;;;26.80;49.60;27.40;100107.00;;;;4972921;28;110405;-66
2022/06/24 06:45:57;;;;;;;2.00;1.42;;;27.00;48.80;27.50;100100.00;;;;4992941;28;86386;-64
2022/06/24 06:48:24;;;;;;;1.67;1.52;;;27.10;48.30;27.60;100099.00;;;;4993193;28;88491;-64
2022/06/24 06:50:57;;;;;;;2.42;1.45;;;27.20;47.60;27.60;100106.00;;;;4992599;28;92991;-65
2022/06/24 06:53:25;;;;;;;2.03;1.55;;;27.30;47.10;27.70;100099.00;;;;4982907;28;88622;-66
2022/06/24 06:55:51;;;;;;;1.50;1.27;;;27.30;46.80;27.80;100092.00;;;;4975288;28;87611;-66
2022/06/24 06:58:18;;;;;;;3.95;1.52;;;27.40;47.20;27.90;100084.00;;;;4984674;28;88504;-65
2022/06/24 07:00:44;;;;;;;2.65;1.55;;;27.50;46.70;28.10;100080.00;;;;4984386;28;88546;-65
2022/06/24 07:03:10;;;;;;;1.38;1.27;;;27.70;46.20;28.30;100078.00;;;;4992294;28;87180;-64
2022/06/24 07:05:36;;;;;;;3.90;1.52;;;27.80;46.10;28.50;100086.00;;;;4977809;28;88161;-64
2022/06/24 07:08:05;;;;;;;1.40;1.27;;;28.10;46.00;28.80;100086.00;;;;4973490;28;108236;-67
2022/06/24 07:10:31;;;;;;;2.05;1.42;;;28.30;45.90;28.80;100083.00;;;;4973147;28;87357;-66
2022/06/24 07:12:57;;;;;;;1.23;0.90;;;28.40;43.40;28.70;100078.00;;;;4974161;28;87498;-65
2022/06/24 07:15:22;;;;;;;2.63;1.65;;;28.40;43.60;28.70;100067.00;;;;4977537;28;106269;-66
2022/06/24 07:17:48;;;;;;;1.88;1.00;;;28.40;43.80;28.70;100069.00;;;;4979634;28;118148;-67
2022/06/24 07:20:13;;;;;;;1.70;1.13;;;28.40;43.60;28.80;100068.00;;;;4980649;28;119096;-67
2022/06/24 07:22:40;;;;;;;3.15;1.65;;;28.50;44.00;29.00;100061.00;;;;4972729;28;110236;-67
2022/06/24 07:25:07;;;;;;;1.33;1.23;;;28.60;43.70;29.20;100068.00;;;;4972783;28;87383;-66
2022/06/24 07:27:33;;;;;;;1.80;1.50;;;28.80;43.00;29.40;100059.00;;;;4974335;28;108674;-66
2022/06/24 07:29:58;;;;;;;1.20;1.10;;;29.00;43.20;29.60;100058.00;;;;4972332;28;87506;-66
2022/06/24 07:32:24;;;;;;;0.88;0.88;;;29.10;41.80;29.70;100061.00;;;;4971488;28;109026;-67
2022/06/24 07:34:50;;;;;;;1.35;1.25;;;29.30;41.50;29.70;100054.00;;;;4972361;28;109157;-68
2022/06/24 07:37:16;;;;;;;1.38;1.10;;;29.30;41.10;29.80;100058.00;;;;4974299;28;117873;-67
2022/06/24 07:39:41;;;;;;;1.33;1.23;;;29.40;41.60;29.90;100053.00;;;;4953464;28;117590;-66
2022/06/24 07:42:11;;;;;;;1.15;1.00;;;29.50;40.60;30.00;100044.00;;;;4971908;28;92443;-65
2022/06/24 07:44:40;;;;;;;0.98;0.98;;;29.50;40.80;30.10;100047.00;;;;4972228;28;99521;-66
2022/06/24 07:47:06;;;;;;;1.88;1.13;;;29.70;40.80;30.30;100051.00;;;;4973532;28;88828;-66
2022/06/24 07:49:32;;;;;;;2.42;1.38;;;29.90;40.60;30.50;100041.00;;;;4989648;28;115013;-66
2022/06/24 07:51:57;;;;;;;1.52;1.20;;;30.10;40.40;30.80;100037.00;;;;4991257;28;108215;-66
2022/06/24 07:54:24;;;;;;;1.27;1.17;;;30.30;39.70;30.80;100033.00;;;;4991439;28;107148;-66
2022/06/24 07:56:59;;;;;;;1.67;1.13;;;30.40;37.70;30.80;100042.00;;;;4994490;28;87662;-66
2022/06/24 07:59:29;;;;;;;1.33;0.90;;;30.40;38.20;31.00;100029.00;;;;4984665;28;88484;-67
2022/06/24 08:01:57;;;;;;;1.73;1.38;;;30.50;37.70;31.10;100028.00;;;;4972083;28;87358;-67
2022/06/24 08:04:24;;;;;;;1.33;1.10;;;30.80;37.70;31.00;100017.00;;;;4972822;28;87549;-67
2022/06/24 08:06:50;;;;;;;2.58;1.08;;;30.70;37.00;31.20;100017.00;;;;4971989;28;88558;-67
2022/06/24 08:09:17;;;;;;;1.17;1.08;;;30.80;36.30;31.20;100010.00;;;;4989720;28;89722;-67
2022/06/24 08:11:44;;;;;;;0.45;0.45;;;30.80;36.00;31.30;100007.00;;;;4984662;28;87491;-67
2022/06/24 08:14:09;;;;;;;3.55;1.52;;;30.90;35.80;31.40;100008.00;;;;4990706;28;87713;-67
2022/06/24 08:16:35;;;;;;;1.17;1.08;;;31.00;35.30;31.40;99999.00;;;;4983156;28;88721;-65
2022/06/24 08:19:01;;;;;;;1.58;0.77;;;31.00;35.60;31.50;100001.00;;;;4987603;28;87206;-67
2022/06/24 08:21:27;;;;;;;0.80;0.80;;;31.10;35.70;31.60;100004.00;;;;4990656;28;99758;-67
2022/06/24 08:23:52;;;;;;;0.65;0.45;;;31.10;34.80;31.60;99998.00;;;;4991603;28;109758;-67
2022/06/24 08:26:18;;;;;;;1.48;1.08;;;31.30;34.90;31.60;99994.00;;;;4990753;28;117033;-67
2022/06/24 08:28:44;;;;;;;1.15;0.80;;;31.20;35.00;31.70;99998.00;;;;4991413;28;107766;-67
2022/06/24 08:31:10;;;;;;;0.75;0.70;;;31.30;35.30;31.70;99984.00;;;;4989995;28;88535;-67
2022/06/24 08:33:36;;;;;;;0.98;0.60;;;31.30;33.30;31.70;99991.00;;;;4976860;28;87266;-68
2022/06/24 08:36:02;;;;;;;1.10;0.75;;;31.30;33.30;31.70;99985.00;;;;4970516;28;118045;-68
2022/06/24 08:38:28;;;;;;;0.52;0.52;;;31.40;32.30;31.70;99985.00;;;;4989577;28;87689;-68
2022/06/24 08:40:54;;;;;;;0.90;0.75;;;31.30;32.00;31.60;99968.00;;;;4972769;28;110213;-67
2022/06/24 08:43:21;;;;;;;1.42;1.00;;;31.30;32.10;31.60;99975.00;;;;4972055;28;87464;-67
2022/06/24 08:45:49;;;;;;;2.92;0.88;;;31.30;32.50;31.70;99965.00;;;;4970833;28;88120;-68
2022/06/24 08:48:15;;;;;;;8.25;1.00;;;31.30;32.70;31.90;99967.00;;;;4971871;28;87659;-68
2022/06/24 08:50:41;;;;;;;0.77;0.77;;;31.40;32.50;31.90;99978.00;;;;4973515;28;87221;-67
2022/06/24 08:53:09;;;;;;;0.93;0.68;;;31.50;31.90;32.00;99978.00;;;;4990784;28;97538;-67
2022/06/24 08:55:41;;;;;;;2.40;0.98;;;31.60;31.50;31.90;99976.00;;;;4990996;28;88538;-67
2022/06/24 08:58:12;;;;;;;1.92;0.90;;;31.50;31.60;31.80;99961.00;;;;4989980;28;88528;-67
2022/06/24 09:00:39;;;;;;;2.38;0.80;;;31.50;31.30;31.80;99978.00;;;;4990665;28;87619;-67
2022/06/24 09:03:06;;;;;;;2.05;0.93;;;31.50;31.50;31.60;99968.00;;;;4989613;28;100917;-67
2022/06/24 09:05:33;;;;;;;2.25;0.98;;;31.30;31.60;31.60;99977.00;;;;4990871;28;87969;-68
2022/06/24 09:08:11;;;;;;;0.70;0.70;;;31.30;32.10;31.60;99954.00;;;;4990599;28;108307;-67
2022/06/24 09:13:31;;;;;;;0.60;0.60;;;31.30;32.00;31.80;99956.00;;;;4968798;28;86883;-68
2022/06/24 09:15:57;;;;;;;0.60;0.60;;;31.40;32.30;31.80;99959.00;;;;4968528;28;106589;-68
2022/06/24 09:18:24;;;;;;;0.60;0.60;;;31.40;32.00;31.90;99953.00;;;;4985398;28;88089;-68
2022/06/24 09:20:57;;;;;;;0.63;0.63;;;31.50;32.20;32.00;99968.00;;;;4980599;28;88571;-68
2022/06/24 09:23:23;;;;;;;1.05;0.82;;;31.50;31.70;32.00;99963.00;;;;4990873;28;87190;-67
2022/06/24 09:25:53;;;;;;;1.13;0.85;;;31.60;31.10;32.00;99954.00;;;;4988742;28;87258;-66
2022/06/24 09:28:24;;;;;;;1.05;0.50;;;31.60;31.40;32.00;99949.00;;;;4990177;28;88365;-67
2022/06/24 09:30:59;;;;;;;1.95;0.70;;;31.60;31.30;32.10;99954.00;;;;4988548;28;87103;-67
2022/06/24 09:33:25;;;;;;;0.65;0.65;;;31.70;31.60;32.20;99937.00;;;;4973139;28;87281;-68
2022/06/24 09:36:00;;;;;;;0.80;0.80;;;31.70;31.50;32.30;99929.00;;;;4978535;28;115580;-67
2022/06/24 09:38:26;;;;;;;0.70;0.70;;;31.80;31.60;32.50;99933.00;;;;4991641;28;87049;-67
2022/06/24 09:41:07;;;;;;;2.15;1.38;;;32.00;30.70;32.60;99934.00;;;;4987807;28;87920;-67
2022/06/24 09:43:33;;;;;;;0.38;0.38;;;32.20;30.30;32.60;99939.00;;;;4987140;28;107570;-67
2022/06/24 09:46:00;;;;;;;0.40;0.40;;;32.10;30.00;32.60;99942.00;;;;5008645;28;119986;-65
2022/06/24 09:48:33;;;;;;;1.17;0.73;;;32.20;30.30;32.70;99929.00;;;;5003261;28;88564;-67
2022/06/24 09:51:07;;;;;;;0.60;0.60;;;32.20;30.30;32.70;99927.00;;;;4987113;28;87769;-67
2022/06/24 09:53:40;;;;;;;1.50;0.50;;;32.30;30.40;32.80;99918.00;;;;4972413;28;87701;-68
2022/06/24 09:56:08;;;;;;;1.48;0.80;;;32.30;30.40;32.80;99934.00;;;;4973988;28;89375;-67
2022/06/24 10:00:40;;;;;;;0.88;0.88;;;32.40;30.70;33.00;99919.00;;;;4988621;28;88554;-67
2022/06/24 10:01:34;;;;;;;0.80;0.80;;;32.50;30.80;33.30;99917.00;;;;4993374;28;87326;-65
2022/06/24 10:04:03;;;;;;;0.85;0.85;;;32.70;30.80;33.40;99931.00;;;;4974301;28;100590;-67
2022/06/24 10:06:32;;;;;;;1.20;0.60;;;32.90;30.70;33.50;99926.00;;;;4987628;28;111188;-66
2022/06/24 10:09:02;;;;;;;0.70;0.70;;;32.90;30.00;33.50;99906.00;;;;4992445;28;87708;-68
2022/06/24 10:11:29;;;;;;;0.60;0.43;;;33.00;29.20;33.40;99906.00;;;;4992215;28;88959;-67
2022/06/24 10:13:56;;;;;;;1.05;0.95;;;33.00;29.40;33.40;99909.00;;;;4994216;28;87153;-67
2022/06/24 10:16:21;;;;;;;0.73;0.63;;;32.90;29.70;33.50;99915.00;;;;4992347;28;114281;-67
2022/06/24 10:18:49;;;;;;;0.65;0.63;;;32.90;29.90;33.70;99911.00;;;;4979200;28;87410;-66
2022/06/24 10:21:17;;;;;;;1.55;0.70;;;33.10;29.90;33.90;99913.00;;;;4975812;28;87883;-67
2022/06/24 10:23:46;;;;;;;0.77;0.77;;;33.30;29.20;33.90;99911.00;;;;4992947;28;95694;-68
2022/06/24 10:26:34;;;;;;;1.40;0.98;;;33.40;29.10;33.70;99904.00;;;;4983549;28;88165;-66
2022/06/24 10:29:00;;;;;;;1.10;0.90;;;33.30;29.30;33.60;99897.00;;;;4989531;28;88316;-67
2022/06/24 10:31:53;;;;;;;0.95;0.68;;;33.20;29.60;33.70;99884.00;;;;4993194;28;87038;-66
2022/06/24 10:34:34;;;;;;;0.82;0.80;;;33.10;29.50;34.00;99874.00;;;;4992791;28;87611;-68
2022/06/24 10:37:08;;;;;;;0.75;0.55;;;33.30;29.50;34.30;99882.00;;;;4993122;28;89450;-67
2022/06/24 10:39:56;;;;;;;2.97;1.13;;;33.60;29.10;34.40;99885.00;;;;4992503;28;89933;-67
2022/06/24 10:42:24;;;;;;;2.10;1.30;;;33.80;29.10;34.40;99899.00;;;;4976124;28;87514;-67
2022/06/24 10:45:06;;;;;;;0.57;0.57;;;33.90;28.80;34.30;99876.00;;;;4985732;28;87333;-68
2022/06/24 10:47:34;;;;;;;1.50;0.90;;;33.80;28.90;34.50;99882.00;;;;4990529;28;97804;-67
2022/06/24 10:50:03;;;;;;;0.80;0.70;;;33.90;28.90;34.40;99874.00;;;;4992802;28;88757;-68
2022/06/24 10:52:48;;;;;;;1.48;0.75;;;33.90;28.90;34.60;99866.00;;;;4993248;28;87731;-67
2022/06/24 10:55:28;;;;;;;0.75;0.75;;;34.00;29.00;35.00;99858.00;;;;4993717;28;86402;-68
2022/06/24 10:58:00;;;;;;;1.08;0.98;;;34.20;29.30;35.30;99862.00;;;;4991457;28;88548;-68
2022/06/24 11:00:43;;;;;;;1.38;0.55;;;34.60;29.00;35.50;99859.00;;;;4991333;28;88519;-66
2022/06/24 11:03:31;;;;;;;2.45;0.82;;;34.80;28.80;35.50;99867.00;;;;4987925;28;88314;-68